sensor_id;sensor_type;location;lat;lon;timestamp;P1;durP1;ratioP1;P2;durP2;ratioP2
84146;SDS011;74267;50.434;7.398;2024-01-15T00:00:09;16.90;;;9.40;;
84146;SDS011;74267;50.434;7.398;2024-01-15T00:02:35;15.68;;;9.25;;
84146;SDS011;74267;50.434;7.398;2024-01-15T00:05:00;16.73;;;8.77;;
84146;SDS011;74267;50.434;7.398;2024-01-15T00:07:26;12.57;;;7.13;;
84146;SDS011;74267;50.434;7.398;2024-01-15T00:09:51;16.40;;;8.25;;
84146;SDS011;74267;50.434;7.398;2024-01-15T00:12:16;15.57;;;7.55;;
84146;SDS011;74267;50.434;7.398;2024-01-15T00:14:41;15.18;;;8.02;;
84146;SDS011;74267;50.434;7.398;2024-01-15T00:17:07;12.75;;;7.18;;
84146;SDS011;74267;50.434;7.398;2024-01-15T00:19:32;11.98;;;7.25;;
84146;SDS011;74267;50.434;7.398;2024-01-15T00:21:58;15.90;;;8.63;;
84146;SDS011;74267;50.434;7.398;2024-01-15T00:24:24;16.20;;;7.78;;
84146;SDS011;74267;50.434;7.398;2024-01-15T00:26:49;12.32;;;7.22;;
84146;SDS011;74267;50.434;7.398;2024-01-15T00:29:14;13.73;;;6.90;;
84146;SDS011;74267;50.434;7.398;2024-01-15T00:31:40;11.85;;;7.30;;
84146;SDS011;74267;50.434;7.398;2024-01-15T00:34:05;11.02;;;6.63;;
84146;SDS011;74267;50.434;7.398;2024-01-15T00:36:30;13.60;;;9.52;;
84146;SDS011;74267;50.434;7.398;2024-01-15T00:38:56;13.25;;;6.78;;
84146;SDS011;74267;50.434;7.398;2024-01-15T00:41:21;14.65;;;8.75;;
84146;SDS011;74267;50.434;7.398;2024-01-15T00:43:47;15.30;;;8.43;;
84146;SDS011;74267;50.434;7.398;2024-01-15T00:46:14;15.32;;;9.73;;
84146;SDS011;74267;50.434;7.398;2024-01-15T00:48:40;12.85;;;8.00;;
84146;SDS011;74267;50.434;7.398;2024-01-15T00:51:05;16.80;;;7.85;;
84146;SDS011;74267;50.434;7.398;2024-01-15T00:53:31;14.20;;;8.20;;
84146;SDS011;74267;50.434;7.398;2024-01-15T00:55:57;13.73;;;7.13;;
84146;SDS011;74267;50.434;7.398;2024-01-15T00:58:22;11.10;;;6.10;;
84146;SDS011;74267;50.434;7.398;2024-01-15T01:00:47;16.35;;;8.00;;
84146;SDS011;74267;50.434;7.398;2024-01-15T01:03:13;12.38;;;7.32;;
84146;SDS011;74267;50.434;7.398;2024-01-15T01:05:38;14.65;;;7.07;;
84146;SDS011;74267;50.434;7.398;2024-01-15T01:08:03;14.00;;;9.32;;
84146;SDS011;74267;50.434;7.398;2024-01-15T01:10:29;12.30;;;7.30;;
84146;SDS011;74267;50.434;7.398;2024-01-15T01:12:55;16.67;;;9.63;;
84146;SDS011;74267;50.434;7.398;2024-01-15T01:15:20;16.83;;;11.50;;
84146;SDS011;74267;50.434;7.398;2024-01-15T01:17:46;12.73;;;7.00;;
84146;SDS011;74267;50.434;7.398;2024-01-15T01:20:11;11.68;;;7.63;;
84146;SDS011;74267;50.434;7.398;2024-01-15T01:22:37;13.32;;;7.80;;
84146;SDS011;74267;50.434;7.398;2024-01-15T01:25:02;10.93;;;5.97;;
84146;SDS011;74267;50.434;7.398;2024-01-15T01:27:28;8.60;;;5.80;;
84146;SDS011;74267;50.434;7.398;2024-01-15T01:29:53;10.52;;;7.18;;
84146;SDS011;74267;50.434;7.398;2024-01-15T01:32:19;13.27;;;9.60;;
84146;SDS011;74267;50.434;7.398;2024-01-15T01:34:45;11.32;;;6.68;;
84146;SDS011;74267;50.434;7.398;2024-01-15T01:37:10;13.73;;;7.53;;
84146;SDS011;74267;50.434;7.398;2024-01-15T01:39:38;10.98;;;6.75;;
84146;SDS011;74267;50.434;7.398;2024-01-15T01:42:04;15.13;;;7.88;;
84146;SDS011;74267;50.434;7.398;2024-01-15T01:44:29;13.63;;;7.82;;
84146;SDS011;74267;50.434;7.398;2024-01-15T01:46:54;12.32;;;6.28;;
84146;SDS011;74267;50.434;7.398;2024-01-15T01:49:22;11.88;;;6.38;;
84146;SDS011;74267;50.434;7.398;2024-01-15T01:51:48;13.07;;;6.95;;
84146;SDS011;74267;50.434;7.398;2024-01-15T01:54:14;15.07;;;8.20;;
84146;SDS011;74267;50.434;7.398;2024-01-15T01:56:40;14.13;;;8.00;;
84146;SDS011;74267;50.434;7.398;2024-01-15T01:59:06;12.02;;;6.53;;
84146;SDS011;74267;50.434;7.398;2024-01-15T02:01:34;13.15;;;7.63;;
84146;SDS011;74267;50.434;7.398;2024-01-15T02:04:01;13.38;;;6.82;;
84146;SDS011;74267;50.434;7.398;2024-01-15T02:06:26;13.30;;;7.78;;
84146;SDS011;74267;50.434;7.398;2024-01-15T02:08:52;13.40;;;7.78;;
84146;SDS011;74267;50.434;7.398;2024-01-15T02:11:18;10.25;;;7.47;;
84146;SDS011;74267;50.434;7.398;2024-01-15T02:13:43;11.88;;;8.20;;
84146;SDS011;74267;50.434;7.398;2024-01-15T02:16:09;12.35;;;7.85;;
84146;SDS011;74267;50.434;7.398;2024-01-15T02:18:41;11.45;;;7.53;;
84146;SDS011;74267;50.434;7.398;2024-01-15T02:21:07;10.95;;;6.47;;
84146;SDS011;74267;50.434;7.398;2024-01-15T02:23:33;12.05;;;7.82;;
84146;SDS011;74267;50.434;7.398;2024-01-15T02:25:58;10.80;;;6.38;;
84146;SDS011;74267;50.434;7.398;2024-01-15T02:28:23;12.05;;;6.00;;
84146;SDS011;74267;50.434;7.398;2024-01-15T02:30:49;10.90;;;5.95;;
84146;SDS011;74267;50.434;7.398;2024-01-15T02:33:14;11.02;;;6.65;;
84146;SDS011;74267;50.434;7.398;2024-01-15T02:35:40;9.75;;;6.25;;
84146;SDS011;74267;50.434;7.398;2024-01-15T02:38:05;8.45;;;5.45;;
84146;SDS011;74267;50.434;7.398;2024-01-15T02:40:31;12.20;;;6.57;;
84146;SDS011;74267;50.434;7.398;2024-01-15T02:42:56;10.55;;;6.43;;
84146;SDS011;74267;50.434;7.398;2024-01-15T02:45:22;11.45;;;7.68;;
84146;SDS011;74267;50.434;7.398;2024-01-15T02:47:48;13.35;;;6.57;;
84146;SDS011;74267;50.434;7.398;2024-01-15T02:50:13;13.27;;;7.40;;
84146;SDS011;74267;50.434;7.398;2024-01-15T02:52:39;11.43;;;7.25;;
84146;SDS011;74267;50.434;7.398;2024-01-15T02:55:04;13.80;;;7.45;;
84146;SDS011;74267;50.434;7.398;2024-01-15T02:57:30;15.20;;;9.10;;
84146;SDS011;74267;50.434;7.398;2024-01-15T02:59:55;15.27;;;7.97;;
84146;SDS011;74267;50.434;7.398;2024-01-15T03:02:21;13.32;;;7.70;;
84146;SDS011;74267;50.434;7.398;2024-01-15T03:04:46;15.27;;;11.57;;
84146;SDS011;74267;50.434;7.398;2024-01-15T03:07:11;14.60;;;6.90;;
84146;SDS011;74267;50.434;7.398;2024-01-15T03:09:37;15.57;;;10.40;;
84146;SDS011;74267;50.434;7.398;2024-01-15T03:12:02;18.25;;;9.35;;
84146;SDS011;74267;50.434;7.398;2024-01-15T03:14:28;12.77;;;8.07;;
84146;SDS011;74267;50.434;7.398;2024-01-15T03:16:53;17.08;;;8.23;;
84146;SDS011;74267;50.434;7.398;2024-01-15T03:19:19;13.98;;;8.55;;
84146;SDS011;74267;50.434;7.398;2024-01-15T03:21:44;15.90;;;8.70;;
84146;SDS011;74267;50.434;7.398;2024-01-15T03:24:09;13.60;;;7.07;;
84146;SDS011;74267;50.434;7.398;2024-01-15T03:26:35;13.68;;;7.97;;
84146;SDS011;74267;50.434;7.398;2024-01-15T03:29:00;18.67;;;8.30;;
84146;SDS011;74267;50.434;7.398;2024-01-15T03:31:25;12.43;;;7.68;;
84146;SDS011;74267;50.434;7.398;2024-01-15T03:33:51;14.73;;;9.27;;
84146;SDS011;74267;50.434;7.398;2024-01-15T03:36:16;15.43;;;7.95;;
84146;SDS011;74267;50.434;7.398;2024-01-15T03:38:41;13.57;;;7.57;;
84146;SDS011;74267;50.434;7.398;2024-01-15T03:41:07;12.68;;;8.57;;
84146;SDS011;74267;50.434;7.398;2024-01-15T03:43:32;13.63;;;8.05;;
84146;SDS011;74267;50.434;7.398;2024-01-15T03:45:58;14.40;;;8.75;;
84146;SDS011;74267;50.434;7.398;2024-01-15T03:48:23;12.35;;;8.27;;
84146;SDS011;74267;50.434;7.398;2024-01-15T03:50:49;13.90;;;7.53;;
84146;SDS011;74267;50.434;7.398;2024-01-15T03:53:14;12.05;;;7.30;;
84146;SDS011;74267;50.434;7.398;2024-01-15T03:55:39;8.15;;;6.70;;
84146;SDS011;74267;50.434;7.398;2024-01-15T03:58:05;10.32;;;7.30;;
84146;SDS011;74267;50.434;7.398;2024-01-15T04:00:30;10.35;;;5.70;;
84146;SDS011;74267;50.434;7.398;2024-01-15T04:02:55;14.88;;;6.50;;
84146;SDS011;74267;50.434;7.398;2024-01-15T04:05:21;11.27;;;6.47;;
84146;SDS011;74267;50.434;7.398;2024-01-15T04:07:46;11.18;;;6.63;;
84146;SDS011;74267;50.434;7.398;2024-01-15T04:10:12;11.40;;;7.40;;
84146;SDS011;74267;50.434;7.398;2024-01-15T04:12:37;10.73;;;6.28;;
84146;SDS011;74267;50.434;7.398;2024-01-15T04:15:02;11.07;;;7.78;;
84146;SDS011;74267;50.434;7.398;2024-01-15T04:17:28;8.68;;;6.78;;
84146;SDS011;74267;50.434;7.398;2024-01-15T04:19:53;11.15;;;6.57;;
84146;SDS011;74267;50.434;7.398;2024-01-15T04:22:19;14.70;;;6.93;;
84146;SDS011;74267;50.434;7.398;2024-01-15T04:24:44;12.13;;;5.43;;
84146;SDS011;74267;50.434;7.398;2024-01-15T04:27:09;10.57;;;6.70;;
84146;SDS011;74267;50.434;7.398;2024-01-15T04:29:37;11.27;;;6.30;;
84146;SDS011;74267;50.434;7.398;2024-01-15T04:32:04;11.98;;;9.30;;
84146;SDS011;74267;50.434;7.398;2024-01-15T04:34:29;12.18;;;7.40;;
84146;SDS011;74267;50.434;7.398;2024-01-15T04:36:54;12.38;;;8.60;;
84146;SDS011;74267;50.434;7.398;2024-01-15T04:39:20;12.63;;;6.78;;
84146;SDS011;74267;50.434;7.398;2024-01-15T04:41:45;13.88;;;6.28;;
84146;SDS011;74267;50.434;7.398;2024-01-15T04:44:10;11.80;;;7.78;;
84146;SDS011;74267;50.434;7.398;2024-01-15T04:46:35;12.20;;;6.07;;
84146;SDS011;74267;50.434;7.398;2024-01-15T04:49:01;14.52;;;8.25;;
84146;SDS011;74267;50.434;7.398;2024-01-15T04:51:26;13.10;;;6.70;;
84146;SDS011;74267;50.434;7.398;2024-01-15T04:53:51;12.02;;;6.13;;
84146;SDS011;74267;50.434;7.398;2024-01-15T04:56:17;10.52;;;5.65;;
84146;SDS011;74267;50.434;7.398;2024-01-15T04:58:43;13.00;;;6.88;;
84146;SDS011;74267;50.434;7.398;2024-01-15T05:01:08;11.82;;;8.85;;
84146;SDS011;74267;50.434;7.398;2024-01-15T05:03:34;10.35;;;7.35;;
84146;SDS011;74267;50.434;7.398;2024-01-15T05:06:00;11.63;;;8.05;;
84146;SDS011;74267;50.434;7.398;2024-01-15T05:08:25;12.63;;;8.45;;
84146;SDS011;74267;50.434;7.398;2024-01-15T05:10:51;12.02;;;7.07;;
84146;SDS011;74267;50.434;7.398;2024-01-15T05:13:16;10.65;;;6.53;;
84146;SDS011;74267;50.434;7.398;2024-01-15T05:15:41;11.85;;;5.95;;
84146;SDS011;74267;50.434;7.398;2024-01-15T05:18:07;13.38;;;6.53;;
84146;SDS011;74267;50.434;7.398;2024-01-15T05:20:32;12.82;;;7.05;;
84146;SDS011;74267;50.434;7.398;2024-01-15T05:22:57;10.88;;;7.15;;
84146;SDS011;74267;50.434;7.398;2024-01-15T05:25:23;11.38;;;6.03;;
84146;SDS011;74267;50.434;7.398;2024-01-15T05:27:48;12.43;;;6.85;;
84146;SDS011;74267;50.434;7.398;2024-01-15T05:30:13;9.82;;;6.95;;
84146;SDS011;74267;50.434;7.398;2024-01-15T05:32:39;11.25;;;6.43;;
84146;SDS011;74267;50.434;7.398;2024-01-15T05:35:04;11.70;;;7.57;;
84146;SDS011;74267;50.434;7.398;2024-01-15T05:37:30;11.18;;;6.60;;
84146;SDS011;74267;50.434;7.398;2024-01-15T05:39:55;10.60;;;7.25;;
84146;SDS011;74267;50.434;7.398;2024-01-15T05:42:21;9.23;;;6.60;;
84146;SDS011;74267;50.434;7.398;2024-01-15T05:44:46;12.45;;;6.30;;
84146;SDS011;74267;50.434;7.398;2024-01-15T05:47:11;12.02;;;8.80;;
84146;SDS011;74267;50.434;7.398;2024-01-15T05:49:37;10.15;;;6.68;;
84146;SDS011;74267;50.434;7.398;2024-01-15T05:52:02;11.10;;;6.95;;
84146;SDS011;74267;50.434;7.398;2024-01-15T05:54:28;11.30;;;7.38;;
84146;SDS011;74267;50.434;7.398;2024-01-15T05:56:53;12.73;;;7.70;;
84146;SDS011;74267;50.434;7.398;2024-01-15T05:59:18;13.30;;;7.07;;
84146;SDS011;74267;50.434;7.398;2024-01-15T06:01:43;11.68;;;7.57;;
84146;SDS011;74267;50.434;7.398;2024-01-15T06:04:09;11.90;;;6.82;;
84146;SDS011;74267;50.434;7.398;2024-01-15T06:06:34;10.63;;;6.10;;
84146;SDS011;74267;50.434;7.398;2024-01-15T06:09:00;12.63;;;6.93;;
84146;SDS011;74267;50.434;7.398;2024-01-15T06:11:30;10.60;;;6.82;;
84146;SDS011;74267;50.434;7.398;2024-01-15T06:13:58;10.18;;;5.68;;
84146;SDS011;74267;50.434;7.398;2024-01-15T06:16:25;12.18;;;6.18;;
84146;SDS011;74267;50.434;7.398;2024-01-15T06:18:51;11.55;;;6.45;;
84146;SDS011;74267;50.434;7.398;2024-01-15T06:21:16;11.93;;;6.80;;
84146;SDS011;74267;50.434;7.398;2024-01-15T06:23:42;11.48;;;6.18;;
84146;SDS011;74267;50.434;7.398;2024-01-15T06:26:07;13.43;;;6.90;;
84146;SDS011;74267;50.434;7.398;2024-01-15T06:28:33;12.60;;;6.38;;
84146;SDS011;74267;50.434;7.398;2024-01-15T06:30:58;11.82;;;6.05;;
84146;SDS011;74267;50.434;7.398;2024-01-15T06:33:23;12.20;;;5.95;;
84146;SDS011;74267;50.434;7.398;2024-01-15T06:35:49;11.50;;;6.78;;
84146;SDS011;74267;50.434;7.398;2024-01-15T06:38:15;12.52;;;6.60;;
84146;SDS011;74267;50.434;7.398;2024-01-15T06:40:40;17.73;;;8.85;;
84146;SDS011;74267;50.434;7.398;2024-01-15T06:43:10;14.18;;;6.45;;
84146;SDS011;74267;50.434;7.398;2024-01-15T06:45:36;13.57;;;7.80;;
84146;SDS011;74267;50.434;7.398;2024-01-15T06:48:01;13.90;;;6.45;;
84146;SDS011;74267;50.434;7.398;2024-01-15T06:50:26;14.15;;;8.13;;
84146;SDS011;74267;50.434;7.398;2024-01-15T06:52:52;13.60;;;7.88;;
84146;SDS011;74267;50.434;7.398;2024-01-15T06:55:17;15.38;;;10.10;;
84146;SDS011;74267;50.434;7.398;2024-01-15T06:57:42;15.40;;;7.93;;
84146;SDS011;74267;50.434;7.398;2024-01-15T07:00:08;13.60;;;9.00;;
84146;SDS011;74267;50.434;7.398;2024-01-15T07:02:34;13.55;;;7.60;;
84146;SDS011;74267;50.434;7.398;2024-01-15T07:04:59;12.10;;;7.75;;
84146;SDS011;74267;50.434;7.398;2024-01-15T07:07:24;13.55;;;8.30;;
84146;SDS011;74267;50.434;7.398;2024-01-15T07:12:19;10.00;;;5.75;;
84146;SDS011;74267;50.434;7.398;2024-01-15T07:14:44;12.68;;;6.65;;
84146;SDS011;74267;50.434;7.398;2024-01-15T07:17:10;15.82;;;9.23;;
84146;SDS011;74267;50.434;7.398;2024-01-15T07:19:35;14.10;;;7.28;;
84146;SDS011;74267;50.434;7.398;2024-01-15T07:22:00;14.90;;;8.57;;
84146;SDS011;74267;50.434;7.398;2024-01-15T07:24:26;17.38;;;9.35;;
84146;SDS011;74267;50.434;7.398;2024-01-15T07:26:51;16.98;;;8.88;;
84146;SDS011;74267;50.434;7.398;2024-01-15T07:29:16;13.93;;;7.10;;
84146;SDS011;74267;50.434;7.398;2024-01-15T07:31:47;12.25;;;7.30;;
84146;SDS011;74267;50.434;7.398;2024-01-15T07:34:16;16.02;;;10.32;;
84146;SDS011;74267;50.434;7.398;2024-01-15T07:36:42;16.58;;;9.77;;
84146;SDS011;74267;50.434;7.398;2024-01-15T07:39:07;16.90;;;8.73;;
84146;SDS011;74267;50.434;7.398;2024-01-15T07:41:32;16.90;;;8.65;;
84146;SDS011;74267;50.434;7.398;2024-01-15T07:43:58;15.25;;;8.75;;
84146;SDS011;74267;50.434;7.398;2024-01-15T07:46:23;13.88;;;7.28;;
84146;SDS011;74267;50.434;7.398;2024-01-15T07:48:49;18.83;;;8.90;;
84146;SDS011;74267;50.434;7.398;2024-01-15T07:51:21;17.25;;;8.50;;
84146;SDS011;74267;50.434;7.398;2024-01-15T07:53:46;16.98;;;9.38;;
84146;SDS011;74267;50.434;7.398;2024-01-15T07:56:11;17.98;;;8.13;;
84146;SDS011;74267;50.434;7.398;2024-01-15T07:58:36;16.98;;;9.52;;
84146;SDS011;74267;50.434;7.398;2024-01-15T08:01:02;16.63;;;8.57;;
84146;SDS011;74267;50.434;7.398;2024-01-15T08:03:27;16.92;;;9.35;;
84146;SDS011;74267;50.434;7.398;2024-01-15T08:05:52;15.75;;;9.63;;
84146;SDS011;74267;50.434;7.398;2024-01-15T08:08:19;15.65;;;7.43;;
84146;SDS011;74267;50.434;7.398;2024-01-15T08:10:46;15.80;;;8.43;;
84146;SDS011;74267;50.434;7.398;2024-01-15T08:13:11;15.48;;;8.23;;
84146;SDS011;74267;50.434;7.398;2024-01-15T08:15:37;18.33;;;13.15;;
84146;SDS011;74267;50.434;7.398;2024-01-15T08:18:02;14.55;;;9.02;;
84146;SDS011;74267;50.434;7.398;2024-01-15T08:20:27;14.15;;;8.27;;
84146;SDS011;74267;50.434;7.398;2024-01-15T08:22:53;16.38;;;8.80;;
84146;SDS011;74267;50.434;7.398;2024-01-15T08:25:19;17.58;;;8.63;;
84146;SDS011;74267;50.434;7.398;2024-01-15T08:27:44;21.02;;;13.60;;
84146;SDS011;74267;50.434;7.398;2024-01-15T08:30:10;15.75;;;10.32;;
84146;SDS011;74267;50.434;7.398;2024-01-15T08:32:35;18.00;;;9.52;;
84146;SDS011;74267;50.434;7.398;2024-01-15T08:35:05;17.42;;;9.90;;
84146;SDS011;74267;50.434;7.398;2024-01-15T08:37:31;19.13;;;8.15;;
84146;SDS011;74267;50.434;7.398;2024-01-15T08:39:56;15.55;;;9.80;;
84146;SDS011;74267;50.434;7.398;2024-01-15T08:42:21;22.65;;;11.80;;
84146;SDS011;74267;50.434;7.398;2024-01-15T08:44:47;20.52;;;9.30;;
84146;SDS011;74267;50.434;7.398;2024-01-15T08:47:12;21.58;;;9.20;;
84146;SDS011;74267;50.434;7.398;2024-01-15T08:49:37;20.63;;;10.70;;
84146;SDS011;74267;50.434;7.398;2024-01-15T08:52:03;14.52;;;7.90;;
84146;SDS011;74267;50.434;7.398;2024-01-15T08:54:28;21.05;;;10.73;;
84146;SDS011;74267;50.434;7.398;2024-01-15T08:56:53;21.35;;;10.15;;
84146;SDS011;74267;50.434;7.398;2024-01-15T08:59:19;16.85;;;9.32;;
84146;SDS011;74267;50.434;7.398;2024-01-15T09:01:50;18.88;;;9.60;;
84146;SDS011;74267;50.434;7.398;2024-01-15T09:04:18;19.83;;;9.00;;
84146;SDS011;74267;50.434;7.398;2024-01-15T09:06:45;20.02;;;10.48;;
84146;SDS011;74267;50.434;7.398;2024-01-15T09:09:11;18.08;;;9.45;;
84146;SDS011;74267;50.434;7.398;2024-01-15T09:11:37;19.92;;;9.95;;
84146;SDS011;74267;50.434;7.398;2024-01-15T09:14:02;20.83;;;9.90;;
84146;SDS011;74267;50.434;7.398;2024-01-15T09:16:28;18.27;;;9.20;;
84146;SDS011;74267;50.434;7.398;2024-01-15T09:18:53;19.02;;;10.48;;
84146;SDS011;74267;50.434;7.398;2024-01-15T09:21:21;14.65;;;8.77;;
84146;SDS011;74267;50.434;7.398;2024-01-15T09:23:47;18.23;;;9.40;;
84146;SDS011;74267;50.434;7.398;2024-01-15T09:26:12;16.10;;;9.90;;
84146;SDS011;74267;50.434;7.398;2024-01-15T09:28:38;15.18;;;10.35;;
84146;SDS011;74267;50.434;7.398;2024-01-15T09:31:03;15.90;;;8.88;;
84146;SDS011;74267;50.434;7.398;2024-01-15T09:33:28;18.50;;;9.88;;
84146;SDS011;74267;50.434;7.398;2024-01-15T09:35:54;18.20;;;9.48;;
84146;SDS011;74267;50.434;7.398;2024-01-15T09:38:19;18.85;;;8.85;;
84146;SDS011;74267;50.434;7.398;2024-01-15T09:40:45;15.52;;;8.70;;
84146;SDS011;74267;50.434;7.398;2024-01-15T09:43:12;13.50;;;8.32;;
84146;SDS011;74267;50.434;7.398;2024-01-15T09:45:39;16.13;;;8.45;;
84146;SDS011;74267;50.434;7.398;2024-01-15T09:48:05;17.92;;;9.20;;
84146;SDS011;74267;50.434;7.398;2024-01-15T09:50:31;12.13;;;7.70;;
84146;SDS011;74267;50.434;7.398;2024-01-15T09:52:56;17.27;;;9.48;;
84146;SDS011;74267;50.434;7.398;2024-01-15T09:55:22;16.58;;;7.75;;
84146;SDS011;74267;50.434;7.398;2024-01-15T09:57:48;15.07;;;9.38;;
84146;SDS011;74267;50.434;7.398;2024-01-15T10:00:17;18.42;;;9.35;;
84146;SDS011;74267;50.434;7.398;2024-01-15T10:02:43;18.65;;;10.02;;
84146;SDS011;74267;50.434;7.398;2024-01-15T10:05:08;15.95;;;9.13;;
84146;SDS011;74267;50.434;7.398;2024-01-15T10:07:34;16.45;;;8.85;;
84146;SDS011;74267;50.434;7.398;2024-01-15T10:10:01;15.23;;;10.27;;
84146;SDS011;74267;50.434;7.398;2024-01-15T10:12:28;17.48;;;10.32;;
84146;SDS011;74267;50.434;7.398;2024-01-15T10:14:53;17.48;;;10.20;;
84146;SDS011;74267;50.434;7.398;2024-01-15T10:17:19;14.50;;;9.23;;
84146;SDS011;74267;50.434;7.398;2024-01-15T10:19:47;15.13;;;10.13;;
84146;SDS011;74267;50.434;7.398;2024-01-15T10:22:16;13.55;;;8.10;;
84146;SDS011;74267;50.434;7.398;2024-01-15T10:24:42;14.18;;;9.90;;
84146;SDS011;74267;50.434;7.398;2024-01-15T10:27:09;16.35;;;8.57;;
84146;SDS011;74267;50.434;7.398;2024-01-15T10:29:35;15.40;;;8.85;;
84146;SDS011;74267;50.434;7.398;2024-01-15T10:32:01;16.75;;;8.65;;
84146;SDS011;74267;50.434;7.398;2024-01-15T10:34:33;12.93;;;7.63;;
84146;SDS011;74267;50.434;7.398;2024-01-15T10:37:03;13.70;;;8.65;;
84146;SDS011;74267;50.434;7.398;2024-01-15T10:39:29;17.08;;;11.32;;
84146;SDS011;74267;50.434;7.398;2024-01-15T10:41:55;16.35;;;9.75;;
84146;SDS011;74267;50.434;7.398;2024-01-15T10:44:20;14.60;;;7.68;;
84146;SDS011;74267;50.434;7.398;2024-01-15T10:46:45;13.52;;;7.72;;
84146;SDS011;74267;50.434;7.398;2024-01-15T10:49:12;13.07;;;8.13;;
84146;SDS011;74267;50.434;7.398;2024-01-15T10:51:37;12.23;;;7.40;;
84146;SDS011;74267;50.434;7.398;2024-01-15T10:54:04;11.27;;;7.25;;
84146;SDS011;74267;50.434;7.398;2024-01-15T10:56:30;12.60;;;8.80;;
84146;SDS011;74267;50.434;7.398;2024-01-15T10:58:57;12.52;;;7.55;;
84146;SDS011;74267;50.434;7.398;2024-01-15T11:01:22;9.15;;;6.95;;
84146;SDS011;74267;50.434;7.398;2024-01-15T11:03:48;10.23;;;6.45;;
84146;SDS011;74267;50.434;7.398;2024-01-15T11:06:18;7.65;;;4.85;;
84146;SDS011;74267;50.434;7.398;2024-01-15T11:08:50;9.15;;;5.05;;
84146;SDS011;74267;50.434;7.398;2024-01-15T11:11:16;6.57;;;4.95;;
84146;SDS011;74267;50.434;7.398;2024-01-15T11:13:42;8.60;;;6.80;;
84146;SDS011;74267;50.434;7.398;2024-01-15T11:16:11;11.90;;;10.73;;
84146;SDS011;74267;50.434;7.398;2024-01-15T11:23:45;8.52;;;7.00;;
84146;SDS011;74267;50.434;7.398;2024-01-15T11:29:06;9.52;;;7.28;;
84146;SDS011;74267;50.434;7.398;2024-01-15T11:34:05;7.95;;;4.90;;
84146;SDS011;74267;50.434;7.398;2024-01-15T11:41:51;9.30;;;5.93;;
84146;SDS011;74267;50.434;7.398;2024-01-15T11:44:17;8.10;;;6.30;;
84146;SDS011;74267;50.434;7.398;2024-01-15T11:46:42;10.27;;;6.20;;
84146;SDS011;74267;50.434;7.398;2024-01-15T11:52:06;10.73;;;9.73;;
84146;SDS011;74267;50.434;7.398;2024-01-15T11:54:33;8.40;;;5.05;;
84146;SDS011;74267;50.434;7.398;2024-01-15T11:57:03;9.82;;;5.28;;
84146;SDS011;74267;50.434;7.398;2024-01-15T12:01:57;7.78;;;5.53;;
84146;SDS011;74267;50.434;7.398;2024-01-15T12:04:22;10.90;;;6.63;;
84146;SDS011;74267;50.434;7.398;2024-01-15T12:06:47;8.20;;;5.43;;
84146;SDS011;74267;50.434;7.398;2024-01-15T12:09:13;7.32;;;5.28;;
84146;SDS011;74267;50.434;7.398;2024-01-15T12:11:38;9.40;;;5.38;;
84146;SDS011;74267;50.434;7.398;2024-01-15T12:14:11;8.95;;;4.72;;
84146;SDS011;74267;50.434;7.398;2024-01-15T12:16:37;9.27;;;5.78;;
84146;SDS011;74267;50.434;7.398;2024-01-15T12:19:03;6.18;;;5.55;;
84146;SDS011;74267;50.434;7.398;2024-01-15T12:21:28;7.65;;;4.75;;
84146;SDS011;74267;50.434;7.398;2024-01-15T12:23:53;5.75;;;4.53;;
84146;SDS011;74267;50.434;7.398;2024-01-15T12:26:21;7.90;;;6.85;;
84146;SDS011;74267;50.434;7.398;2024-01-15T12:28:46;6.82;;;4.05;;
84146;SDS011;74267;50.434;7.398;2024-01-15T12:31:11;5.68;;;4.25;;
84146;SDS011;74267;50.434;7.398;2024-01-15T12:33:38;7.28;;;6.57;;
84146;SDS011;74267;50.434;7.398;2024-01-15T12:36:03;6.80;;;4.95;;
84146;SDS011;74267;50.434;7.398;2024-01-15T12:38:29;6.18;;;5.43;;
84146;SDS011;74267;50.434;7.398;2024-01-15T12:40:54;8.95;;;4.85;;
84146;SDS011;74267;50.434;7.398;2024-01-15T12:43:20;6.95;;;4.75;;
84146;SDS011;74267;50.434;7.398;2024-01-15T12:45:45;7.07;;;3.95;;
84146;SDS011;74267;50.434;7.398;2024-01-15T12:48:10;7.70;;;4.57;;
84146;SDS011;74267;50.434;7.398;2024-01-15T12:50:38;8.18;;;4.97;;
84146;SDS011;74267;50.434;7.398;2024-01-15T12:53:03;9.93;;;5.28;;
84146;SDS011;74267;50.434;7.398;2024-01-15T12:55:29;6.30;;;5.47;;
84146;SDS011;74267;50.434;7.398;2024-01-15T12:57:54;8.52;;;5.13;;
84146;SDS011;74267;50.434;7.398;2024-01-15T13:00:20;7.28;;;5.28;;
84146;SDS011;74267;50.434;7.398;2024-01-15T13:02:45;4.25;;;3.50;;
84146;SDS011;74267;50.434;7.398;2024-01-15T13:05:11;6.03;;;4.68;;
84146;SDS011;74267;50.434;7.398;2024-01-15T13:07:37;5.25;;;4.38;;
84146;SDS011;74267;50.434;7.398;2024-01-15T13:10:02;6.47;;;5.05;;
84146;SDS011;74267;50.434;7.398;2024-01-15T13:12:28;6.00;;;5.47;;
84146;SDS011;74267;50.434;7.398;2024-01-15T13:14:53;5.63;;;4.32;;
84146;SDS011;74267;50.434;7.398;2024-01-15T13:17:19;5.63;;;4.32;;
84146;SDS011;74267;50.434;7.398;2024-01-15T13:19:45;4.82;;;3.90;;
84146;SDS011;74267;50.434;7.398;2024-01-15T13:22:11;8.95;;;4.57;;
84146;SDS011;74267;50.434;7.398;2024-01-15T13:24:38;8.35;;;3.80;;
84146;SDS011;74267;50.434;7.398;2024-01-15T13:27:04;5.05;;;4.65;;
84146;SDS011;74267;50.434;7.398;2024-01-15T13:29:30;6.80;;;4.60;;
84146;SDS011;74267;50.434;7.398;2024-01-15T13:31:56;10.38;;;4.55;;
84146;SDS011;74267;50.434;7.398;2024-01-15T13:34:25;3.47;;;2.90;;
84146;SDS011;74267;50.434;7.398;2024-01-15T13:36:51;6.50;;;5.00;;
84146;SDS011;74267;50.434;7.398;2024-01-15T13:39:17;4.53;;;4.00;;
84146;SDS011;74267;50.434;7.398;2024-01-15T13:41:45;5.97;;;3.35;;
84146;SDS011;74267;50.434;7.398;2024-01-15T13:44:11;6.25;;;3.25;;
84146;SDS011;74267;50.434;7.398;2024-01-15T13:46:36;6.25;;;2.97;;
84146;SDS011;74267;50.434;7.398;2024-01-15T13:49:03;4.32;;;2.65;;
84146;SDS011;74267;50.434;7.398;2024-01-15T13:51:29;4.00;;;3.30;;
84146;SDS011;74267;50.434;7.398;2024-01-15T13:53:55;4.25;;;3.55;;
84146;SDS011;74267;50.434;7.398;2024-01-15T13:56:20;4.60;;;2.90;;
84146;SDS011;74267;50.434;7.398;2024-01-15T13:58:45;4.68;;;4.28;;
84146;SDS011;74267;50.434;7.398;2024-01-15T14:01:12;5.47;;;3.75;;
84146;SDS011;74267;50.434;7.398;2024-01-15T14:03:38;6.20;;;2.45;;
84146;SDS011;74267;50.434;7.398;2024-01-15T14:06:03;4.57;;;3.60;;
84146;SDS011;74267;50.434;7.398;2024-01-15T14:08:33;4.88;;;3.80;;
84146;SDS011;74267;50.434;7.398;2024-01-15T14:10:58;8.73;;;4.40;;
84146;SDS011;74267;50.434;7.398;2024-01-15T14:13:24;3.70;;;2.72;;
84146;SDS011;74267;50.434;7.398;2024-01-15T14:15:49;6.07;;;4.03;;
84146;SDS011;74267;50.434;7.398;2024-01-15T14:18:15;8.27;;;4.38;;
84146;SDS011;74267;50.434;7.398;2024-01-15T14:20:41;5.97;;;4.30;;
84146;SDS011;74267;50.434;7.398;2024-01-15T14:23:07;4.55;;;3.90;;
84146;SDS011;74267;50.434;7.398;2024-01-15T14:25:32;5.40;;;2.55;;
84146;SDS011;74267;50.434;7.398;2024-01-15T14:27:58;6.15;;;4.90;;
84146;SDS011;74267;50.434;7.398;2024-01-15T14:30:23;6.72;;;3.83;;
84146;SDS011;74267;50.434;7.398;2024-01-15T14:32:49;5.88;;;3.58;;
84146;SDS011;74267;50.434;7.398;2024-01-15T14:35:14;9.35;;;4.97;;
84146;SDS011;74267;50.434;7.398;2024-01-15T14:37:39;5.50;;;3.63;;
84146;SDS011;74267;50.434;7.398;2024-01-15T14:40:05;5.03;;;3.22;;
84146;SDS011;74267;50.434;7.398;2024-01-15T14:42:32;7.57;;;3.78;;
84146;SDS011;74267;50.434;7.398;2024-01-15T14:44:58;9.15;;;8.52;;
84146;SDS011;74267;50.434;7.398;2024-01-15T14:47:24;5.55;;;3.50;;
84146;SDS011;74267;50.434;7.398;2024-01-15T14:49:49;5.38;;;2.72;;